Time;durP1;ratioP1;P1;durP2;ratioP2;P2;SDS_P1;SDS_P2;PMS_P1;PMS_P2;Temp;Humidity;BMP_temperature;BMP_pressure;BME280_temperature;BME280_humidity;BME280_pressure;Samples;Min_cycle;Max_cycle;Signal;HPM_P1;HPM_P2
2022/09/14 06:45:04;;;;;;;;;;;;;;;7.11;100.00;98568.59;6276252;22;19961;-87
2022/09/14 06:47:33;;;;;;;;;;;;;;;7.13;100.00;98574.63;6297360;22;20104;-86
2022/09/14 06:49:58;;;;;;;;;;;;;;;7.15;100.00;98578.91;6305436;22;19907;-86
2022/09/14 06:52:23;;;;;;;;;;;;;;;7.15;100.00;98567.50;6295470;22;19922;-89
2022/09/14 06:54:48;;;;;;;;;;;;;;;7.20;100.00;98569.00;6306669;22;20012;-89
2022/09/14 06:57:14;;;;;;;;;;;;;;;7.21;100.00;98561.94;6305536;22;19911;-87
2022/09/14 06:59:40;;;;;;;;;;;;;;;7.16;100.00;98569.22;6303569;22;19997;-87
2022/09/14 07:02:05;;;;;;;;;;;;;;;7.18;100.00;98583.16;6310049;22;19907;-87
2022/09/14 07:49:01;;;;;;;;;;;;;;;7.12;100.00;98599.28;6307962;22;20005;-87
2022/09/14 07:51:27;;;;;;;;;;;;;;;7.13;100.00;98600.97;6307290;22;19975;-88
2022/09/14 07:53:53;;;;;;;;;;;;;;;7.17;100.00;98606.03;6308598;22;19915;-88
2022/09/14 07:56:20;;;;;;;;;;;;;;;7.11;100.00;98589.66;6308428;22;19925;-87
2022/09/14 07:58:46;;;;;;;;;;;;;;;7.14;100.00;98593.00;6308088;22;19911;-87
2022/09/14 08:01:12;;;;;;;;;;;;;;;7.19;100.00;98585.72;6305336;22;20002;-86
2022/09/14 08:03:39;;;;;;;;;;;;;;;7.20;100.00;98586.59;6306855;22;20295;-91
2022/09/14 08:06:09;;;;;;;;;;;;;;;7.19;100.00;98590.13;6307116;22;19911;-94
2022/09/14 08:08:36;;;;;;;;;;;;;;;7.18;100.00;98589.28;6307567;22;19918;-92
2022/09/14 08:11:02;;;;;;;;;;;;;;;7.22;100.00;98587.34;6309799;22;20364;-87
2022/09/14 08:13:31;;;;;;;;;;;;;;;7.19;100.00;98569.06;6308424;22;20180;-89
2022/09/14 08:15:59;;;;;;;;;;;;;;;7.23;100.00;98573.28;6305083;22;19969;-87
2022/09/14 08:18:25;;;;;;;;;;;;;;;7.23;100.00;98581.19;6308224;22;19911;-87
2022/09/14 08:20:50;;;;;;;;;;;;;;;7.24;100.00;98583.75;6309409;22;19918;-96
2022/09/14 08:23:15;;;;;;;;;;;;;;;7.22;100.00;98582.09;6310062;22;19917;-89
2022/09/14 08:25:40;;;;;;;;;;;;;;;7.19;100.00;98596.25;6311241;22;20345;-93
2022/09/14 08:28:05;;;;;;;;;;;;;;;16.26;100.00;98578.84;6297600;22;20230;-93
2022/09/14 08:30:31;;;;;;;;;;;;;;;18.59;100.00;98570.47;6309039;22;19922;-94
2022/09/14 08:32:57;;;;;;;;;;;;;;;18.82;100.00;98579.03;6307816;22;20342;-91
2022/09/14 08:35:22;;;;;;;;;;;;;;;17.93;100.00;98581.09;6306795;22;19918;-90
2022/09/14 08:37:47;;;;;;;;;;;;;;;14.77;100.00;98591.06;6307642;22;19977;-87
2022/09/14 08:40:12;;;;;;;;;;;;;;;11.55;100.00;98599.06;6306546;22;20337;-86
2022/09/14 08:42:39;;;;;;;;;;;;;;;10.49;100.00;98604.81;6307411;22;19915;-86
2022/09/14 08:45:06;;;;;;;;;;;;;;;10.00;100.00;98620.97;6306039;22;19998;-86
2022/09/14 08:47:35;;;;;;;;;;;;;;;9.73;100.00;98632.25;6304479;22;19919;-87
2022/09/14 08:50:08;;;;;;;;;;;;;;;9.52;100.00;98630.81;6305920;22;19964;-86
2022/09/14 08:52:33;;;;;;;;;;;;;;;9.36;100.00;98629.03;6305794;22;19915;-87
2022/09/14 08:55:14;;;;;;;;;;;;;;;9.27;100.00;98625.13;6305776;22;20321;-86
2022/09/14 08:57:43;;;;;;;;;;;;;;;9.21;100.00;98622.00;6307526;22;19911;-87
2022/09/14 09:00:12;;;;;;;;;;;;;;;9.16;100.00;98626.66;6307367;22;20306;-87
2022/09/14 09:02:54;;;;;;;;;;;;;;;9.09;100.00;98629.66;6306324;22;19918;-87
2022/09/14 09:05:27;;;;;;;;;;;;;;;9.05;100.00;98625.47;6306293;22;19910;-87
2022/09/14 09:08:01;;;;;;;;;;;;;;;9.03;100.00;98621.19;6305683;22;19941;-86
2022/09/14 09:10:28;;;;;;;;;;;;;;;9.01;100.00;98604.56;6305798;22;19918;-90
2022/09/14 09:12:56;;;;;;;;;;;;;;;8.97;100.00;98601.25;6305683;22;19965;-86
2022/09/14 09:15:33;;;;;;;;;;;;;;;8.93;100.00;98596.22;6304177;22;19915;-87
2022/09/14 09:18:01;;;;;;;;;;;;;;;8.94;100.00;98596.16;6305311;22;19953;-86
2022/09/14 09:20:31;;;;;;;;;;;;;;;8.93;100.00;98593.59;6306121;22;19918;-86
2022/09/14 09:23:06;;;;;;;;;;;;;;;8.95;100.00;98591.72;6305682;22;19911;-86
2022/09/14 09:25:44;;;;;;;;;;;;;;;8.90;100.00;98591.97;6305635;22;19911;-86
2022/09/14 09:28:11;;;;;;;;;;;;;;;8.85;100.00;98586.06;6305928;22;19911;-86
2022/09/14 09:30:36;;;;;;;;;;;;;;;8.84;100.00;98569.38;6303778;22;20200;-87
2022/09/14 09:33:03;;;;;;;;;;;;;;;8.81;100.00;98566.91;6298804;22;19911;-86
2022/09/14 09:35:28;;;;;;;;;;;;;;;8.81;100.00;98566.06;6305459;22;19968;-86
2022/09/14 09:37:53;;;;;;;;;;;;;;;8.85;100.00;98564.94;6305816;22;20376;-86
2022/09/14 09:40:22;;;;;;;;;;;;;;;8.82;100.00;98576.56;6305870;22;19919;-86
2022/09/14 09:43:02;;;;;;;;;;;;;;;8.80;100.00;98562.56;6307007;22;20227;-86
2022/09/14 09:45:45;;;;;;;;;;;;;;;8.75;100.00;98564.59;6296805;22;19921;-87
2022/09/14 09:48:12;;;;;;;;;;;;;;;8.79;100.00;98560.00;6305420;22;20245;-86
2022/09/14 09:50:45;;;;;;;;;;;;;;;8.80;100.00;98557.28;6305569;22;19918;-86
2022/09/14 09:53:14;;;;;;;;;;;;;;;8.83;100.00;98556.25;6305315;22;19918;-87
2022/09/14 09:55:39;;;;;;;;;;;;;;;8.80;100.00;98546.72;6305173;22;20246;-86
2022/09/14 09:58:23;;;;;;;;;;;;;;;8.81;100.00;98547.59;6305525;22;19911;-86
2022/09/14 10:01:15;;;;;;;;;;;;;;;8.84;100.00;98536.81;6303586;22;19968;-86
2022/09/14 10:03:42;;;;;;;;;;;;;;;8.80;100.00;98538.78;6246824;22;19907;-89
2022/09/14 10:06:14;;;;;;;;;;;;;;;8.81;100.00;98532.56;6303447;22;19958;-85
2022/09/14 10:08:42;;;;;;;;;;;;;;;8.81;100.00;98534.38;6304080;22;19911;-86
2022/09/14 10:11:25;;;;;;;;;;;;;;;8.81;100.00;98532.56;6304021;22;19989;-86
2022/09/14 10:13:51;;;;;;;;;;;;;;;8.82;100.00;98528.13;6303808;22;19910;-86
2022/09/14 10:16:18;;;;;;;;;;;;;;;8.78;100.00;98519.53;6276406;22;19914;-86
2022/09/14 10:18:45;;;;;;;;;;;;;;;8.76;100.00;98521.41;6303689;22;19934;-86
2022/09/14 10:21:11;;;;;;;;;;;;;;;8.79;100.00;98526.53;6277832;22;20338;-86
2022/09/14 10:23:37;;;;;;;;;;;;;;;8.77;100.00;98517.81;6303978;22;20010;-85
2022/09/14 10:26:12;;;;;;;;;;;;;;;8.79;100.00;98512.47;6277725;22;19915;-85
2022/09/14 10:28:39;;;;;;;;;;;;;;;8.78;100.00;98508.97;6303865;22;20339;-85
2022/09/14 10:31:10;;;;;;;;;;;;;;;8.79;100.00;98496.59;6303759;22;19915;-86
2022/09/14 10:33:36;;;;;;;;;;;;;;;8.78;100.00;98495.78;6306687;22;19957;-86
2022/09/14 10:36:20;;;;;;;;;;;;;;;8.81;100.00;98495.59;6305322;22;19911;-86
2022/09/14 10:38:45;;;;;;;;;;;;;;;8.84;100.00;98490.16;6306817;22;19915;-86
2022/09/14 10:41:27;;;;;;;;;;;;;;;8.81;100.00;98476.28;6304904;22;20345;-86
2022/09/14 10:44:08;;;;;;;;;;;;;;;8.79;100.00;98486.91;6306416;22;19907;-86
2022/09/14 10:46:43;;;;;;;;;;;;;;;8.80;100.00;98485.97;6303295;22;20271;-85
2022/09/14 10:49:14;;;;;;;;;;;;;;;8.80;100.00;98483.31;6248409;22;19942;-86
2022/09/14 10:51:42;;;;;;;;;;;;;;;8.81;100.00;98484.19;6275591;22;19969;-85
2022/09/14 10:54:07;;;;;;;;;;;;;;;8.82;100.00;98488.50;6248054;22;20341;-86
2022/09/14 10:56:32;;;;;;;;;;;;;;;8.82;100.00;98489.38;6248389;22;20294;-86
2022/09/14 10:59:04;;;;;;;;;;;;;;;8.81;100.00;98479.75;6248201;22;19919;-87
2022/09/14 11:01:42;;;;;;;;;;;;;;;8.82;100.00;98476.19;6247326;22;19919;-86
2022/09/14 11:04:10;;;;;;;;;;;;;;;8.84;100.00;98476.94;6275854;22;19918;-86
2022/09/14 11:06:38;;;;;;;;;;;;;;;8.87;100.00;98478.53;6275231;22;20000;-87
2022/09/14 11:09:15;;;;;;;;;;;;;;;8.88;100.00;98482.91;6248183;22;19986;-86
2022/09/14 11:12:07;;;;;;;;;;;;;;;8.88;100.00;98481.09;6239288;22;19911;-87
2022/09/14 11:14:32;;;;;;;;;;;;;;;8.85;100.00;98488.34;6202812;22;19933;-87
2022/09/14 11:20:06;;;;;;;;;;;;;;;8.87;100.00;98479.41;6277481;22;20246;-86
2022/09/14 11:22:32;;;;;;;;;;;;;;;8.86;100.00;98482.97;6278532;22;20299;-89
2022/09/14 11:25:03;;;;;;;;;;;;;;;8.86;100.00;98482.97;6250250;22;19938;-87
2022/09/14 11:27:35;;;;;;;;;;;;;;;8.87;100.00;98484.69;6277321;22;19941;-86
2022/09/14 11:30:08;;;;;;;;;;;;;;;8.88;100.00;98499.59;6250151;22;19917;-86
2022/09/14 11:32:54;;;;;;;;;;;;;;;8.87;100.00;98489.97;6248653;22;19942;-86
2022/09/14 11:35:38;;;;;;;;;;;;;;;8.87;100.00;98476.78;6276952;22;19915;-86
2022/09/14 11:38:22;;;;;;;;;;;;;;;8.88;100.00;98486.38;6250324;22;19969;-86
2022/09/14 11:41:01;;;;;;;;;;;;;;;8.84;100.00;98484.88;6277165;22;20345;-86
2022/09/14 11:43:53;;;;;;;;;;;;;;;8.87;100.00;98484.69;6250504;22;19911;-86
2022/09/14 11:46:29;;;;;;;;;;;;;;;8.87;100.00;98473.25;6269252;22;19926;-86
2022/09/14 11:49:13;;;;;;;;;;;;;;;8.84;100.00;98470.78;6306475;22;19915;-86
2022/09/14 11:51:41;;;;;;;;;;;;;;;8.87;100.00;98462.69;6306528;22;20351;-86
2022/09/14 11:54:16;;;;;;;;;;;;;;;8.88;100.00;98461.75;6307978;22;19915;-87
2022/09/14 11:56:45;;;;;;;;;;;;;;;8.87;100.00;98460.91;6306393;22;19918;-86
2022/09/14 11:59:30;;;;;;;;;;;;;;;8.91;100.00;98462.44;6306547;22;20372;-87
2022/09/14 12:01:55;;;;;;;;;;;;;;;8.89;100.00;98472.25;6304615;22;20398;-86
2022/09/14 12:04:21;;;;;;;;;;;;;;;8.88;100.00;98474.97;6297126;22;19953;-86
2022/09/14 12:06:48;;;;;;;;;;;;;;;8.90;100.00;98479.22;6306385;22;20220;-86
2022/09/14 12:09:18;;;;;;;;;;;;;;;8.92;100.00;98471.22;6306110;22;19934;-86
2022/09/14 12:11:44;;;;;;;;;;;;;;;8.95;100.00;98471.06;6306408;22;19911;-86
2022/09/14 12:14:12;;;;;;;;;;;;;;;8.96;100.00;98474.53;6306187;22;20356;-86
2022/09/14 12:17:16;;;;;;;;;;;;;;;8.97;100.00;98485.00;6304545;22;19942;-86
2022/09/14 12:19:46;;;;;;;;;;;;;;;8.96;100.00;98490.38;6182866;23;20210;-86
2022/09/14 12:22:28;;;;;;;;;;;;;;;8.93;100.00;98493.19;6158103;23;19919;-86
2022/09/14 12:25:17;;;;;;;;;;;;;;;8.94;100.00;98476.41;6245599;22;19993;-86
2022/09/14 12:27:44;;;;;;;;;;;;;;;8.95;100.00;98480.75;6291538;22;19910;-87
2022/09/14 12:30:28;;;;;;;;;;;;;;;8.91;100.00;98475.63;6306413;22;19919;-87
2022/09/14 12:32:53;;;;;;;;;;;;;;;8.93;100.00;98477.34;6307737;22;19910;-87
2022/09/14 12:35:31;;;;;;;;;;;;;;;8.93;100.00;98472.06;6306042;22;19946;-86
2022/09/14 12:37:56;;;;;;;;;;;;;;;8.96;100.00;98469.25;6306012;22;19915;-86
2022/09/14 12:40:21;;;;;;;;;;;;;;;8.96;100.00;98466.59;6306590;22;19915;-92
2022/09/14 12:42:47;;;;;;;;;;;;;;;8.97;100.00;98463.03;6306852;22;19914;-88
2022/09/14 12:45:31;;;;;;;;;;;;;;;8.91;100.00;98462.44;6305880;22;19915;-87
2022/09/14 12:47:56;;;;;;;;;;;;;;;8.89;100.00;98450.25;6306068;22;19950;-86
2022/09/14 12:50:22;;;;;;;;;;;;;;;8.89;100.00;98448.47;6307854;22;19922;-86
2022/09/14 12:52:54;;;;;;;;;;;;;;;8.90;100.00;98446.66;6306131;22;19911;-86
2022/09/14 12:55:19;;;;;;;;;;;;;;;8.94;100.00;98455.28;6307490;22;20323;-86
2022/09/14 12:57:53;;;;;;;;;;;;;;;8.99;100.00;98447.94;6305816;22;19997;-86
2022/09/14 13:00:19;;;;;;;;;;;;;;;8.98;100.00;98444.44;6304795;22;19926;-86
2022/09/14 13:03:10;;;;;;;;;;;;;;;9.01;100.00;98454.81;6307329;22;19915;-88
2022/09/14 13:05:35;;;;;;;;;;;;;;;9.06;100.00;98444.00;6306017;22;19933;-89
2022/09/14 13:08:07;;;;;;;;;;;;;;;9.01;100.00;98452.19;6307319;22;20355;-86
2022/09/14 13:10:34;;;;;;;;;;;;;;;9.08;100.00;98460.63;6307587;22;19911;-86
2022/09/14 13:13:00;;;;;;;;;;;;;;;9.02;100.00;98448.59;6306098;22;19935;-86
2022/09/14 13:15:31;;;;;;;;;;;;;;;9.01;100.00;98444.25;6305639;22;19911;-86
2022/09/14 13:17:59;;;;;;;;;;;;;;;9.02;100.00;98445.13;6307011;22;19918;-86
2022/09/14 13:20:25;;;;;;;;;;;;;;;9.02;100.00;98440.69;6307564;22;19918;-86
2022/09/14 13:22:50;;;;;;;;;;;;;;;9.03;100.00;98447.69;6307321;22;19911;-86
2022/09/14 13:25:33;;;;;;;;;;;;;;;9.02;100.00;98438.03;6305896;22;19994;-86
2022/09/14 13:28:05;;;;;;;;;;;;;;;9.03;100.00;98431.81;6307255;22;19915;-85
2022/09/14 13:30:31;;;;;;;;;;;;;;;9.04;100.00;98422.09;6305420;22;19994;-85
2022/09/14 13:32:58;;;;;;;;;;;;;;;8.97;100.00;98436.63;6306466;22;20242;-86
2022/09/14 13:35:27;;;;;;;;;;;;;;;8.99;100.00;98421.53;6306091;22;19971;-85
2022/09/14 13:37:52;;;;;;;;;;;;;;;8.99;100.00;98413.59;6306397;22;19911;-85
2022/09/14 13:40:21;;;;;;;;;;;;;;;9.00;100.00;98415.28;6307279;22;19915;-85
2022/09/14 13:42:47;;;;;;;;;;;;;;;8.99;100.00;98419.72;6306949;22;19911;-86
2022/09/14 13:45:12;;;;;;;;;;;;;;;8.99;100.00;98425.00;6306722;22;19911;-86
2022/09/14 13:47:38;;;;;;;;;;;;;;;8.98;100.00;98433.03;6303661;22;19926;-86
2022/09/14 13:50:05;;;;;;;;;;;;;;;9.00;100.00;98447.84;6307013;22;19922;-86
2022/09/14 13:52:33;;;;;;;;;;;;;;;8.98;100.00;98449.72;6305359;22;19915;-87
2022/09/14 13:55:17;;;;;;;;;;;;;;;8.96;100.00;98442.84;6307487;22;19915;-86
2022/09/14 13:58:01;;;;;;;;;;;;;;;8.94;100.00;98442.09;6304978;22;19942;-86
2022/09/14 14:00:27;;;;;;;;;;;;;;;8.98;100.00;98446.22;6305209;22;20276;-86
2022/09/14 14:02:59;;;;;;;;;;;;;;;9.00;100.00;98429.34;6305321;22;19957;-86
2022/09/14 14:05:26;;;;;;;;;;;;;;;9.02;100.00;98424.00;6305137;22;19922;-86
2022/09/14 14:07:53;;;;;;;;;;;;;;;9.03;100.00;98431.81;6305312;22;19953;-86
2022/09/14 14:10:26;;;;;;;;;;;;;;;8.98;100.00;98427.75;6306962;22;19919;-86
2022/09/14 14:12:51;;;;;;;;;;;;;;;9.02;100.00;98414.25;6305222;22;19934;-86
2022/09/14 14:15:17;;;;;;;;;;;;;;;9.03;100.00;98409.81;6306057;22;20234;-87
2022/09/14 14:17:42;;;;;;;;;;;;;;;8.99;100.00;98424.16;6305695;22;19917;-86
2022/09/14 14:20:22;;;;;;;;;;;;;;;9.04;100.00;98416.81;6305255;22;19990;-87
2022/09/14 14:22:54;;;;;;;;;;;;;;;9.04;100.00;98419.47;6305321;22;19938;-86
2022/09/14 14:25:27;;;;;;;;;;;;;;;9.10;100.00;98413.81;6304948;22;19972;-86
2022/09/14 14:27:59;;;;;;;;;;;;;;;9.09;100.00;98414.75;6305057;22;19956;-86
2022/09/14 14:30:25;;;;;;;;;;;;;;;9.06;100.00;98410.50;6303307;22;20330;-85
2022/09/14 14:32:54;;;;;;;;;;;;;;;9.04;100.00;98400.97;6301888;22;19914;-86
2022/09/14 14:35:22;;;;;;;;;;;;;;;9.09;100.00;98388.31;6304831;22;19911;-86
2022/09/14 14:37:47;;;;;;;;;;;;;;;9.10;100.00;98390.03;6305001;22;19911;-86
2022/09/14 14:40:13;;;;;;;;;;;;;;;9.08;100.00;98378.72;6304952;22;19937;-86
2022/09/14 14:42:39;;;;;;;;;;;;;;;9.17;100.00;98374.66;6305158;22;19925;-86
2022/09/14 14:45:05;;;;;;;;;;;;;;;9.03;100.00;98368.41;6306604;22;19922;-86
2022/09/14 14:47:30;;;;;;;;;;;;;;;9.05;100.00;98377.09;6303061;22;20238;-86
2022/09/14 14:49:55;;;;;;;;;;;;;;;9.09;100.00;98360.13;6304651;22;19985;-86
2022/09/14 14:52:21;;;;;;;;;;;;;;;9.06;100.00;98365.59;6306392;22;19922;-86
2022/09/14 14:54:46;;;;;;;;;;;;;;;9.10;100.00;98368.91;6305361;22;19911;-86
2022/09/14 14:57:12;;;;;;;;;;;;;;;9.11;100.00;98360.03;6306368;22;19965;-86
2022/09/14 14:59:38;;;;;;;;;;;;;;;9.07;100.00;98366.44;6304831;22;20266;-88
2022/09/14 15:02:05;;;;;;;;;;;;;;;9.07;100.00;98363.78;6294510;22;19911;-86
2022/09/14 15:04:30;;;;;;;;;;;;;;;9.10;100.00;98363.63;6304619;22;19929;-86
2022/09/14 15:06:56;;;;;;;;;;;;;;;9.11;100.00;98364.44;6306458;22;19910;-88
2022/09/14 15:09:22;;;;;;;;;;;;;;;9.15;100.00;98353.63;6306368;22;19999;-86
2022/09/14 15:11:48;;;;;;;;;;;;;;;9.10;100.00;98353.03;6305331;22;20235;-87
2022/09/14 15:14:14;;;;;;;;;;;;;;;9.09;100.00;98336.34;6306754;22;19915;-87
2022/09/14 15:16:40;;;;;;;;;;;;;;;9.09;100.00;98336.34;6303492;22;19914;-86
2022/09/14 15:19:05;;;;;;;;;;;;;;;9.12;100.00;98337.94;6304626;22;19911;-86
2022/09/14 15:21:31;;;;;;;;;;;;;;;9.12;100.00;98332.66;6304781;22;19922;-88
2022/09/14 15:23:57;;;;;;;;;;;;;;;9.15;100.00;98329.81;6305289;22;19911;-86
2022/09/14 15:26:23;;;;;;;;;;;;;;;9.12;100.00;98337.94;6303749;22;20246;-85
2022/09/14 15:28:53;;;;;;;;;;;;;;;9.11;100.00;98343.31;6304156;22;19915;-90
2022/09/14 15:31:19;;;;;;;;;;;;;;;9.13;100.00;98342.28;6270259;22;19923;-88
2022/09/14 15:33:44;;;;;;;;;;;;;;;9.14;100.00;98343.97;6274349;22;19997;-87
2022/09/14 15:36:09;;;;;;;;;;;;;;;9.14;100.00;98348.41;6246435;22;19911;-87
2022/09/14 15:38:35;;;;;;;;;;;;;;;9.11;100.00;98346.84;6246851;22;19922;-89
2022/09/14 15:41:01;;;;;;;;;;;;;;;9.12;100.00;98351.16;6272094;22;20239;-88
2022/09/14 15:43:26;;;;;;;;;;;;;;;9.12;100.00;98361.72;6270934;22;19911;-86
2022/09/14 15:45:51;;;;;;;;;;;;;;;9.13;100.00;98365.22;6245346;22;20714;-86
2022/09/14 15:48:17;;;;;;;;;;;;;;;9.15;100.00;98360.69;6271955;22;19915;-86
2022/09/14 15:50:43;;;;;;;;;;;;;;;9.18;100.00;98361.34;6272518;22;19947;-89
2022/09/14 15:53:13;;;;;;;;;;;;;;;9.12;100.00;98361.72;6246769;22;19911;-86
2022/09/14 15:55:39;;;;;;;;;;;;;;;9.09;100.00;98362.78;6267564;22;20001;-85
2022/09/14 15:58:04;;;;;;;;;;;;;;;9.17;100.00;98379.94;6304589;22;19938;-86
2022/09/14 16:00:30;;;;;;;;;;;;;;;9.20;100.00;98377.97;6304030;22;20215;-87
2022/09/14 16:02:55;;;;;;;;;;;;;;;9.17;100.00;98370.22;6307077;22;19946;-86
2022/09/14 16:05:21;;;;;;;;;;;;;;;9.21;100.00;98369.09;6304621;22;20305;-85
2022/09/14 16:07:46;;;;;;;;;;;;;;;9.17;100.00;98369.38;6305972;22;19911;-86
2022/09/14 16:10:11;;;;;;;;;;;;;;;9.15;100.00;98366.81;6305931;22;19918;-86
2022/09/14 16:12:37;;;;;;;;;;;;;;;9.16;100.00;98373.81;6305598;22;19958;-88
2022/09/14 16:15:02;;;;;;;;;;;;;;;9.18;100.00;98377.22;6306738;22;20235;-94
2022/09/14 16:17:27;;;;;;;;;;;;;;;9.19;100.00;98376.28;6306031;22;19937;-86
2022/09/14 16:19:53;;;;;;;;;;;;;;;9.18;100.00;98386.94;6306275;22;19911;-88
2022/09/14 16:22:18;;;;;;;;;;;;;;;9.16;100.00;98389.69;6305774;22;19918;-87
2022/09/14 16:24:43;;;;;;;;;;;;;;;9.16;100.00;98389.69;6304717;22;19918;-87
2022/09/14 16:27:11;;;;;;;;;;;;;;;9.20;100.00;98385.06;6306006;22;20238;-90
2022/09/14 16:29:38;;;;;;;;;;;;;;;9.16;100.00;98389.69;6304912;22;20694;-86
2022/09/14 16:32:03;;;;;;;;;;;;;;;9.18;100.00;98398.34;6306359;22;19911;-86
2022/09/14 16:34:29;;;;;;;;;;;;;;;9.17;100.00;98391.34;6305254;22;20490;-86
2022/09/14 16:36:55;;;;;;;;;;;;;;;9.18;100.00;98398.34;6306373;22;19985;-86
2022/09/14 16:39:24;;;;;;;;;;;;;;;9.19;100.00;98393.91;6305222;22;19962;-86
2022/09/14 16:41:50;;;;;;;;;;;;;;;9.14;100.00;98388.06;6305761;22;20327;-87
2022/09/14 16:44:17;;;;;;;;;;;;;;;9.18;100.00;98385.16;6305944;22;19918;-86
2022/09/14 16:46:42;;;;;;;;;;;;;;;9.15;100.00;98390.59;6303725;22;20052;-86
2022/09/14 16:49:08;;;;;;;;;;;;;;;9.16;100.00;98388.81;6306045;22;20138;-86
2022/09/14 16:51:33;;;;;;;;;;;;;;;9.17;100.00;98390.53;6306347;22;19911;-86
2022/09/14 16:53:59;;;;;;;;;;;;;;;9.21;100.00;98382.31;6305165;22;19921;-86
2022/09/14 16:56:25;;;;;;;;;;;;;;;9.21;100.00;98373.56;6304411;22;19911;-86
2022/09/14 16:58:52;;;;;;;;;;;;;;;9.18;100.00;98365.81;6305832;22;20306;-86
2022/09/14 17:01:24;;;;;;;;;;;;;;;9.17;100.00;98362.28;6297028;22;19964;-86
2022/09/14 17:03:50;;;;;;;;;;;;;;;9.16;100.00;98360.59;6304357;22;19923;-86
2022/09/14 17:06:21;;;;;;;;;;;;;;;9.19;100.00;98359.56;6305261;22;19911;-86
2022/09/14 17:08:47;;;;;;;;;;;;;;;9.23;100.00;98356.66;6305174;22;19914;-86
2022/09/14 17:11:13;;;;;;;;;;;;;;;9.16;100.00;98360.59;6304799;22;20376;-86
2022/09/14 17:13:39;;;;;;;;;;;;;;;9.18;100.00;98365.81;6305749;22;19911;-86
2022/09/14 17:16:05;;;;;;;;;;;;;;;9.19;100.00;98363.06;6303175;22;20327;-86
2022/09/14 17:18:31;;;;;;;;;;;;;;;9.22;100.00;98362.88;6306683;22;19911;-86
2022/09/14 17:20:58;;;;;;;;;;;;;;;9.19;100.00;98357.78;6307407;22;20211;-86
2022/09/14 17:23:23;;;;;;;;;;;;;;;9.16;100.00;98362.38;6307125;22;19922;-86
2022/09/14 17:25:49;;;;;;;;;;;;;;;9.13;100.00;98358.16;6304902;22;20522;-86
2022/09/14 17:28:14;;;;;;;;;;;;;;;9.11;100.00;98360.03;6304631;22;20397;-85
2022/09/14 17:30:40;;;;;;;;;;;;;;;9.10;100.00;98353.03;6304196;22;20226;-86
2022/09/14 17:33:05;;;;;;;;;;;;;;;9.12;100.00;98347.66;6305354;22;19911;-86
2022/09/14 17:35:31;;;;;;;;;;;;;;;9.11;100.00;98343.31;6306679;22;19919;-86
2022/09/14 17:37:56;;;;;;;;;;;;;;;9.10;100.00;98347.75;6304312;22;20615;-85
2022/09/14 17:40:21;;;;;;;;;;;;;;;9.09;100.00;98356.63;6304020;22;19915;-86
2022/09/14 17:42:47;;;;;;;;;;;;;;;9.10;100.00;98371.53;6306620;22;19911;-88
2022/09/14 17:45:12;;;;;;;;;;;;;;;9.09;100.00;98378.63;6303797;22;20323;-85
2022/09/14 17:47:37;;;;;;;;;;;;;;;9.05;100.00;98382.38;6302860;22;19995;-86
2022/09/14 17:50:03;;;;;;;;;;;;;;;9.09;100.00;98396.25;6304564;22;19918;-86
2022/09/14 17:52:28;;;;;;;;;;;;;;;9.08;100.00;98400.69;6304384;22;20323;-86
2022/09/14 17:54:53;;;;;;;;;;;;;;;9.08;100.00;98413.91;6303504;22;20310;-84
2022/09/14 17:57:18;;;;;;;;;;;;;;;9.07;100.00;98421.91;6305151;22;20044;-87
2022/09/14 17:59:44;;;;;;;;;;;;;;;9.03;100.00;98418.63;6305484;22;20001;-89
2022/09/14 18:02:10;;;;;;;;;;;;;;;9.09;100.00;98420.03;6302928;22;19922;-86
2022/09/14 18:04:35;;;;;;;;;;;;;;;9.17;100.00;98423.06;6304897;22;19907;-86
2022/09/14 18:07:01;;;;;;;;;;;;;;;9.17;100.00;98436.28;6305235;22;20315;-86
2022/09/14 18:09:27;;;;;;;;;;;;;;;9.18;100.00;98443.28;6306233;22;19907;-86
2022/09/14 18:11:54;;;;;;;;;;;;;;;9.18;100.00;98456.50;6306638;22;19922;-86
2022/09/14 18:14:20;;;;;;;;;;;;;;;9.13;100.00;98457.72;6306662;22;19949;-86
2022/09/14 18:16:45;;;;;;;;;;;;;;;9.06;100.00;98468.66;6303124;22;19906;-86
2022/09/14 18:19:11;;;;;;;;;;;;;;;9.00;100.00;98468.13;6304916;22;19918;-86
2022/09/14 18:21:36;;;;;;;;;;;;;;;9.03;100.00;98484.66;6305337;22;20334;-86
2022/09/14 18:24:01;;;;;;;;;;;;;;;9.15;100.00;98514.81;6305162;22;20311;-87
2022/09/14 18:26:28;;;;;;;;;;;;;;;9.36;100.00;98480.16;6304183;22;19918;-88
2022/09/14 18:28:54;;;;;;;;;;;;;;;9.31;100.00;98474.28;6304227;22;19910;-88
2022/09/14 18:31:20;;;;;;;;;;;;;;;9.19;100.00;98476.72;6302621;22;19911;-86
2022/09/14 18:33:50;;;;;;;;;;;;;;;9.30;100.00;98456.72;6304423;22;19918;-88
2022/09/14 18:36:16;;;;;;;;;;;;;;;9.25;100.00;98457.84;6304079;22;19938;-90
2022/09/14 18:38:41;;;;;;;;;;;;;;;9.20;100.00;98467.81;6304240;22;20307;-88
2022/09/14 18:41:07;;;;;;;;;;;;;;;9.19;100.00;98466.13;6305111;22;20338;-86
2022/09/14 18:43:33;;;;;;;;;;;;;;;9.19;100.00;98463.50;6306178;22;19972;-87
2022/09/14 18:45:58;;;;;;;;;;;;;;;9.19;100.00;98481.13;6304281;22;19919;-88
2022/09/14 18:48:24;;;;;;;;;;;;;;;9.14;100.00;98497.25;6306744;22;19914;-89
2022/09/14 18:50:49;;;;;;;;;;;;;;;9.16;100.00;98474.25;6294499;22;19915;-88
2022/09/14 18:53:14;;;;;;;;;;;;;;;9.14;100.00;98460.25;6303981;22;19911;-87
2022/09/14 18:55:39;;;;;;;;;;;;;;;9.12;100.00;98493.84;6304128;22;20365;-91
2022/09/14 18:58:05;;;;;;;;;;;;;;;9.12;100.00;98493.84;6304772;22;19918;-89
2022/09/14 19:00:30;;;;;;;;;;;;;;;9.12;100.00;98496.50;6303232;22;20223;-89
2022/09/14 19:02:56;;;;;;;;;;;;;;;9.12;100.00;98500.94;6303773;22;19988;-90
2022/09/14 19:05:22;;;;;;;;;;;;;;;9.09;100.00;98494.03;6304180;22;19915;-88
2022/09/14 19:07:47;;;;;;;;;;;;;;;9.13;100.00;98487.63;6303960;22;19915;-89
2022/09/14 19:10:13;;;;;;;;;;;;;;;9.11;100.00;98496.56;6303526;22;19911;-86
2022/09/14 19:12:39;;;;;;;;;;;;;;;9.09;100.00;98553.03;6304251;22;19942;-88
2022/09/14 19:15:04;;;;;;;;;;;;;;;9.12;100.00;98554.63;6305858;22;20238;-86
2022/09/14 19:17:30;;;;;;;;;;;;;;;9.12;100.00;98536.13;6302504;22;19922;-85
2022/09/14 19:19:55;;;;;;;;;;;;;;;9.11;100.00;98513.31;6304073;22;19915;-89
2022/09/14 19:22:20;;;;;;;;;;;;;;;9.07;100.00;98530.25;6304017;22;19994;-87
2022/09/14 19:24:45;;;;;;;;;;;;;;;9.09;100.00;98523.97;6304280;22;20250;-88
2022/09/14 19:27:11;;;;;;;;;;;;;;;9.05;100.00;98530.34;6304156;22;19917;-88
2022/09/14 19:29:36;;;;;;;;;;;;;;;9.08;100.00;98519.59;6303559;22;20237;-86
2022/09/14 19:32:01;;;;;;;;;;;;;;;9.07;100.00;98504.69;6304052;22;19911;-87
2022/09/14 19:34:27;;;;;;;;;;;;;;;9.05;100.00;98500.44;6304646;22;20293;-88
2022/09/14 19:36:53;;;;;;;;;;;;;;;9.03;100.00;98478.50;6303537;22;20361;-86
2022/09/14 19:39:19;;;;;;;;;;;;;;;9.04;100.00;98480.22;6305765;22;19919;-86
2022/09/14 19:41:44;;;;;;;;;;;;;;;8.99;100.00;98483.13;6303391;22;19915;-85
2022/09/14 19:44:10;;;;;;;;;;;;;;;9.01;100.00;98486.53;6306818;22;19911;-87
2022/09/14 19:46:35;;;;;;;;;;;;;;;9.02;100.00;98487.41;6302030;22;19976;-86
2022/09/14 19:49:01;;;;;;;;;;;;;;;9.02;100.00;98498.81;6304676;22;19926;-86
2022/09/14 19:51:27;;;;;;;;;;;;;;;9.04;100.00;98502.22;6305978;22;19915;-85
2022/09/14 19:53:53;;;;;;;;;;;;;;;9.05;100.00;98509.22;6305207;22;19922;-88
2022/09/14 19:56:19;;;;;;;;;;;;;;;9.05;100.00;98514.50;6304947;22;20335;-86
2022/09/14 19:58:47;;;;;;;;;;;;;;;9.03;100.00;98510.22;6302749;22;19993;-87
2022/09/14 20:01:13;;;;;;;;;;;;;;;9.03;100.00;98507.56;6301324;22;20246;-84
2022/09/14 20:03:39;;;;;;;;;;;;;;;9.04;100.00;98502.22;6306258;22;19911;-85
2022/09/14 20:06:19;;;;;;;;;;;;;;;9.04;100.00;98507.50;6305395;22;19915;-85
2022/09/14 20:08:45;;;;;;;;;;;;;;;9.08;100.00;98500.25;6304192;22;19911;-87
2022/09/14 20:11:12;;;;;;;;;;;;;;;9.03;100.00;98497.00;6305356;22;19930;-88
2022/09/14 20:13:37;;;;;;;;;;;;;;;9.03;100.00;98504.94;6305490;22;19911;-86
2022/09/14 20:16:11;;;;;;;;;;;;;;;9.04;100.00;98490.78;6302602;22;19917;-86
2022/09/14 20:18:36;;;;;;;;;;;;;;;9.05;100.00;98498.63;6304012;22;19915;-85
2022/09/14 20:21:05;;;;;;;;;;;;;;;9.04;100.00;98490.78;6305384;22;19953;-86
2022/09/14 20:23:30;;;;;;;;;;;;;;;9.04;100.00;98483.72;6304290;22;19911;-86